Blackrock, Ireland

9:07 PM IST on April 18, 2015 (GMT +0100)
Blackrock, Co. Dublin | | Change Station
CLOSE
Current Station
Personal Weather Station
Location: Dublin, LEINSTER
Elevation: 131 ft
Nearby Weather Stations

Elev 131 ft 53.30 °N, 6.18 °W | Updated 1 minute ago

Clear
Clear
46.8 °F
Feels Like 47 °F
N
1.6
Wind Variable Wind from East
Gusts 2.2 mph

Today
High -- | Low -- °F
--% Chance of Precip.
Yesterday
High -- | Low -- °F
Precip. -- in
6:19 AM 8:30 PM
New Moon, 0% visible
Pressure 30.39 in
Visibility -9999.0 miles
Clouds
Windchill 47 °F
Dew Point 38 °F
Humidity 72%
Rainfall 0.00 in
Snow Depth Not available.
UV Not available.
Pollen Not available.
Air Quality Not available.
Flu Activity Not available.
METAR EIDW 182000Z 04008KT CAVOK 07/04 Q1029 NOSIG

More Conditions Fewer Conditions

Pressure 30.39 in
Visibility -9999.0 miles
Clouds
Windchill 47 °F
Dew Point 38 °F
Humidity 72%
Rainfall 0.00 in
Snow Depth Not available.
UV Not available.
Pollen Not available.
Air Quality Not available.
Flu Activity Not available.
METAR EIDW 182000Z 04008KT CAVOK 07/04 Q1029 NOSIG

More Conditions Fewer Conditions

10-Day Weather Forecast

Almanac

Astronomy

Apr. 18, 2015 Rise Set
Actual Time
Civil Twilight
Nautical Twilight
Astronomical Twilight
Moon
Length of Visible Light
Length of Day
Tomorrow will be .
, % of the Moon is Illuminated

Today's Extremes

Country Highs Country Lows

Community

WunderPhotos

Upload Photos

1,814,513 photos uploaded!

WunderBlogs® & News

Nearby

Air Quality

  Air Quality AQ Index Pollutant
Not available.

Snow Depth

Station Depth Elevation

Earthquake Activity

City Distance Mag. Time & Date
Minimum magnitude displayed is 2.5.

Coastal Water Temperatures

Place Temperature

Stations

Nearby Weather Stations

Station Location Temp. Windchill Dew Point Humidity Wind Precip. Elev Updated Type